Time;durP1;ratioP1;P1;durP2;ratioP2;P2;SDS_P1;SDS_P2;PMS_P1;PMS_P2;Temp;Humidity;BMP_temperature;BMP_pressure;BME280_temperature;BME280_humidity;BME280_pressure;Samples;Min_cycle;Max_cycle;Signal;HPM_P1;HPM_P2
2022/03/24 00:01:58;;;;;;;47.67;26.45;;;;;;;;;;5113404;28;20950;-77
2022/03/24 00:04:24;;;;;;;47.58;26.40;;;;;;;;;;5114960;28;20371;-77
2022/03/24 00:06:50;;;;;;;48.03;26.85;;;;;;;;;;5113266;28;20374;-90
2022/03/24 00:09:17;;;;;;;42.20;25.73;;;;;;;;;;5114425;28;20370;-77
2022/03/24 00:11:43;;;;;;;42.20;26.25;;;;;;;;;;5113081;28;20402;-77
2022/03/24 00:14:09;;;;;;;45.33;26.40;;;;;;;;;;5113377;28;20395;-77
2022/03/24 00:16:35;;;;;;;52.50;26.63;;;;;;;;;;5113045;28;20879;-77
2022/03/24 00:19:01;;;;;;;49.05;25.85;;;;;;;;;;5113243;28;20405;-89
2022/03/24 00:21:28;;;;;;;45.72;25.70;;;;;;;;;;5114360;28;20363;-77
2022/03/24 00:23:54;;;;;;;40.28;24.45;;;;;;;;;;5114335;28;20931;-77
2022/03/24 00:26:20;;;;;;;46.85;25.20;;;;;;;;;;5112940;28;20371;-77
2022/03/24 00:28:46;;;;;;;44.55;27.65;;;;;;;;;;5112771;28;20374;-88
2022/03/24 00:31:13;;;;;;;59.35;35.38;;;;;;;;;;5112671;28;20402;-90
2022/03/24 00:33:40;;;;;;;57.92;37.10;;;;;;;;;;5113996;28;20359;-91
2022/03/24 00:36:10;;;;;;;66.20;39.45;;;;;;;;;;5112585;28;20731;-77
2022/03/24 00:38:37;;;;;;;52.35;30.75;;;;;;;;;;5114028;28;20355;-91
2022/03/24 00:41:03;;;;;;;40.42;24.65;;;;;;;;;;5112356;28;20713;-91
2022/03/24 00:43:30;;;;;;;36.47;22.05;;;;;;;;;;5112836;28;20402;-86
2022/03/24 00:45:57;;;;;;;39.35;22.63;;;;;;;;;;5112544;28;20418;-76
2022/03/24 00:48:24;;;;;;;38.42;22.95;;;;;;;;;;5114291;28;20458;-91
2022/03/24 00:50:50;;;;;;;34.90;21.35;;;;;;;;;;5112417;28;20395;-77
2022/03/24 00:53:17;;;;;;;39.90;21.85;;;;;;;;;;5112810;28;20375;-90
2022/03/24 00:55:43;;;;;;;35.85;20.83;;;;;;;;;;5112165;28;20861;-77
2022/03/24 00:58:10;;;;;;;34.90;20.02;;;;;;;;;;5114187;27;20374;-87
2022/03/24 01:00:38;;;;;;;35.08;18.77;;;;;;;;;;5112108;28;20450;-91
2022/03/24 01:03:10;;;;;;;31.83;18.27;;;;;;;;;;5112414;28;20424;-89
2022/03/24 01:05:39;;;;;;;29.92;18.33;;;;;;;;;;5112454;28;20379;-77
2022/03/24 01:08:08;;;;;;;32.45;17.98;;;;;;;;;;5115938;28;20367;-77
2022/03/24 01:10:35;;;;;;;34.25;19.00;;;;;;;;;;5114634;28;20405;-90
2022/03/24 01:13:01;;;;;;;35.95;19.10;;;;;;;;;;5116361;28;20390;-88
2022/03/24 01:15:30;;;;;;;36.70;19.67;;;;;;;;;;5116230;28;20374;-86
2022/03/24 01:17:59;;;;;;;35.17;20.53;;;;;;;;;;5120847;28;20420;-77
2022/03/24 01:20:26;;;;;;;42.17;21.95;;;;;;;;;;5121483;28;20378;-77
2022/03/24 01:22:52;;;;;;;37.77;23.63;;;;;;;;;;5120453;28;20454;-77
2022/03/24 01:25:19;;;;;;;40.03;24.52;;;;;;;;;;5119295;28;20371;-77
2022/03/24 01:27:46;;;;;;;45.03;25.83;;;;;;;;;;5120647;28;20382;-76
2022/03/24 01:30:12;;;;;;;45.83;26.60;;;;;;;;;;5117205;28;20391;-77
2022/03/24 01:32:38;;;;;;;54.33;30.13;;;;;;;;;;5119893;28;20461;-77
2022/03/24 01:35:07;;;;;;;55.85;31.98;;;;;;;;;;5125543;28;20382;-76
2022/03/24 01:37:42;;;;;;;49.50;29.63;;;;;;;;;;5124614;28;20395;-77
2022/03/24 01:40:28;;;;;;;52.87;29.83;;;;;;;;;;5121702;28;20488;-76
2022/03/24 01:42:55;;;;;;;51.87;28.57;;;;;;;;;;5121416;28;20446;-77
2022/03/24 01:45:21;;;;;;;50.07;27.73;;;;;;;;;;5127395;28;20431;-77
2022/03/24 01:47:47;;;;;;;48.78;27.63;;;;;;;;;;5121744;28;20386;-77
2022/03/24 01:50:14;;;;;;;51.67;27.98;;;;;;;;;;5120520;28;20382;-77
2022/03/24 01:52:40;;;;;;;45.63;26.42;;;;;;;;;;5121286;28;20393;-76
2022/03/24 01:55:11;;;;;;;49.15;28.30;;;;;;;;;;5120103;28;20462;-77
2022/03/24 01:57:38;;;;;;;42.53;27.90;;;;;;;;;;5119075;28;20394;-77
2022/03/24 02:00:04;;;;;;;47.00;28.25;;;;;;;;;;5118853;28;20379;-77
2022/03/24 02:02:31;;;;;;;51.17;29.02;;;;;;;;;;5123919;28;20361;-77
2022/03/24 02:04:57;;;;;;;46.63;27.88;;;;;;;;;;5117603;28;20405;-76
2022/03/24 02:07:23;;;;;;;54.53;29.02;;;;;;;;;;5124025;28;20374;-76
2022/03/24 02:09:49;;;;;;;44.10;27.95;;;;;;;;;;5118632;28;20436;-77
2022/03/24 02:12:16;;;;;;;48.83;28.27;;;;;;;;;;5117861;28;20390;-77
2022/03/24 02:14:42;;;;;;;46.92;28.83;;;;;;;;;;5127425;28;20364;-77
2022/03/24 02:17:09;;;;;;;45.88;28.95;;;;;;;;;;5120515;28;20977;-77
2022/03/24 02:19:36;;;;;;;48.10;29.52;;;;;;;;;;5125647;28;20363;-77
2022/03/24 02:22:12;;;;;;;48.65;29.80;;;;;;;;;;5121353;22;20415;-77
2022/03/24 02:24:39;;;;;;;50.25;30.70;;;;;;;;;;5088921;28;20804;-77
2022/03/24 02:27:05;;;;;;;48.35;31.50;;;;;;;;;;5087346;28;20388;-77
2022/03/24 02:29:32;;;;;;;60.47;34.20;;;;;;;;;;5089216;28;20360;-76
2022/03/24 02:31:58;;;;;;;63.83;37.80;;;;;;;;;;5108730;28;20400;-76
2022/03/24 02:37:10;;;;;;;72.35;42.60;;;;;;;;;;5107175;28;20387;-77
2022/03/24 02:39:38;;;;;;;73.15;43.38;;;;;;;;;;5088716;28;20372;-77
2022/03/24 02:42:05;;;;;;;72.15;43.70;;;;;;;;;;5086838;28;20956;-77
2022/03/24 02:44:31;;;;;;;73.88;45.63;;;;;;;;;;5089873;28;20384;-77
2022/03/24 02:46:59;;;;;;;70.80;46.10;;;;;;;;;;5104097;28;20432;-77
2022/03/24 02:49:26;;;;;;;80.95;48.10;;;;;;;;;;5088491;28;20402;-76
2022/03/24 02:51:53;;;;;;;78.15;47.55;;;;;;;;;;5085893;28;20443;-77
2022/03/24 02:54:20;;;;;;;77.35;47.58;;;;;;;;;;5105370;28;20459;-77
2022/03/24 02:56:47;;;;;;;73.63;47.17;;;;;;;;;;5085014;28;20881;-77
2022/03/24 02:59:13;;;;;;;73.65;45.78;;;;;;;;;;5087159;28;20380;-77
2022/03/24 03:01:41;;;;;;;74.25;43.85;;;;;;;;;;5083957;28;20392;-76
2022/03/24 03:04:08;;;;;;;69.35;42.42;;;;;;;;;;5087902;28;20360;-77
2022/03/24 03:06:45;;;;;;;72.82;42.40;;;;;;;;;;5085656;28;20381;-77
2022/03/24 03:09:16;;;;;;;69.03;40.20;;;;;;;;;;5088307;28;20427;-76
2022/03/24 03:12:00;;;;;;;63.65;39.20;;;;;;;;;;5099896;28;20768;-77
2022/03/24 03:14:28;;;;;;;68.53;39.65;;;;;;;;;;5085110;28;20381;-77
2022/03/24 03:16:54;;;;;;;65.82;38.15;;;;;;;;;;5100277;28;20384;-76
2022/03/24 03:19:20;;;;;;;;;;;;;;;;;;5105339;28;20467;-77
2022/03/24 03:21:46;;;;;;;;;;;;;;;;;;5085811;28;19904;-76
2022/03/24 03:24:12;;;;;;;;;;;;;;;;;;5081592;28;19950;-77
2022/03/24 03:26:58;;;;;;;;;;;;;;;;;;5079773;28;19926;-77
2022/03/24 03:29:24;;;;;;;;;;;;;;;;;;5086675;28;19916;-77
2022/03/24 03:31:51;;;;;;;;;;;179.20;1331.20;;;;;;5082346;28;19916;-77
2022/03/24 03:34:17;;;;;;;;;;;154.50;1356.80;;;;;;5089064;28;19916;-76
2022/03/24 03:36:44;;;;;;;;;;;154.40;1356.80;;;;;;5088025;28;19893;-77
2022/03/24 03:39:09;;;;;;;;;;;154.20;1356.80;;;;;;5086567;28;20011;-77
2022/03/24 03:41:36;;;;;;;;;;;154.30;1382.40;;;;;;5080043;28;19952;-77
2022/03/24 03:44:02;;;;;;;;;;;154.30;1382.40;;;;;;5081960;28;19940;-77
2022/03/24 03:46:28;;;;;;;;;;;154.20;1382.40;;;;;;5082708;28;19954;-77
2022/03/24 03:48:53;;;;;;;;;;;154.20;1382.40;;;;;;5081189;28;19912;-76
2022/03/24 03:51:19;;;;;;;;;;;154.00;1382.40;;;;;;5084219;28;19916;-77
2022/03/24 03:53:45;;;;;;;;;;;154.10;1382.40;;;;;;5087103;28;19892;-77
2022/03/24 03:56:12;;;;;;;;;;;154.10;1382.40;;;;;;5080086;28;20048;-77
2022/03/24 03:58:38;;;;;;;;;;;154.10;1382.40;;;;;;5082459;28;19892;-77
2022/03/24 04:01:04;;;;;;;;;;;153.90;1408.00;;;;;;5083491;28;19892;-77
2022/03/24 04:03:34;;;;;;;;;;;153.90;1433.60;;;;;;5081397;28;19915;-77
2022/03/24 04:06:04;;;;;;;;;;;153.90;1408.00;;;;;;5081802;28;19913;-77
2022/03/24 04:08:29;;;;;;;;;;;153.90;1408.00;;;;;;5082905;28;19912;-76
2022/03/24 04:10:55;;;;;;;;;;;153.90;1408.00;;;;;;5080021;28;19999;-77
2022/03/24 04:13:21;;;;;;;;;;;153.90;1408.00;;;;;;5081251;28;19892;-76
2022/03/24 04:15:49;;;;;;;;;;;153.90;1408.00;;;;;;5081655;28;20312;-77
2022/03/24 04:18:15;;;;;;;;;;;153.90;1408.00;;;;;;5081909;28;19892;-77
2022/03/24 04:20:41;;;;;;;;;;;153.90;1408.00;;;;;;5083495;28;19912;-76
2022/03/24 04:23:14;;;;;;;;;;;153.90;1408.00;;;;;;5105408;28;19896;-78
2022/03/24 04:25:40;;;;;;;;;;;153.90;1408.00;;;;;;5085534;28;19908;-77
2022/03/24 04:28:06;;;;;;;;;;;153.90;1433.60;;;;;;5104262;28;19892;-77
2022/03/24 04:30:32;;;;;;;;;;;153.90;1408.00;;;;;;5101913;28;20306;-77
2022/03/24 04:32:58;;;;;;;;;;;154.00;1408.00;;;;;;5086387;28;19892;-76
2022/03/24 04:35:25;;;;;;;;;;;154.10;1408.00;;;;;;5087396;28;19964;-77
2022/03/24 04:37:51;;;;;;;;;;;154.10;1408.00;;;;;;5087717;28;19916;-77
2022/03/24 04:40:18;;;;;;;;;;;153.90;1408.00;;;;;;5087841;28;19914;-77
2022/03/24 04:42:45;;;;;;;;;;;153.90;1433.60;;;;;;5086255;28;19893;-77
2022/03/24 04:45:10;;;;;;;;;;;154.00;1408.00;;;;;;5082198;28;19908;-77
2022/03/24 04:47:37;;;;;;;;;;;153.90;1433.60;;;;;;5102268;28;19898;-77
2022/03/24 04:50:03;;;;;;;;;;;153.90;1433.60;;;;;;5090247;28;19908;-77
2022/03/24 04:52:28;;;;;;;;;;;;;;;;;;5087071;28;19907;-76
2022/03/24 04:54:54;;;;;;;;;;;;;;;;;;5086939;28;19931;-77
2022/03/24 04:57:21;;;;;;;;;;;;;;;;;;5106014;28;19931;-78
2022/03/24 04:59:47;;;;;;;;;;;;;;;;;;5084696;28;19964;-77
2022/03/24 05:02:15;;;;;;;;;;;;;;;;;;5105314;23;19920;-77
2022/03/24 05:04:41;;;;;;;;;;;;;;;;;;5100248;28;19994;-77
2022/03/24 05:07:09;;;;;;;;;;;;;;;;;;5098947;28;19911;-77
2022/03/24 05:09:35;;;;;;;;;;;;;;;;;;5098061;28;19888;-77
2022/03/24 05:12:01;;;;;;;;;;;;;;;;;;5106009;28;20406;-77
2022/03/24 05:14:27;;;;;;;;;;;;;;;;;;5109065;28;19899;-77
2022/03/24 05:16:53;;;;;;;;;;;;;;;;;;5113693;28;19968;-76
2022/03/24 05:19:19;;;;;;;;;;;;;;;;;;5113938;28;19914;-77
2022/03/24 05:21:45;;;;;;;;;;;154.10;1715.20;;;;;;5110816;28;19899;-77
2022/03/24 05:24:11;;;;;;;;;;;153.90;1459.20;;;;;;5109154;28;20016;-77
2022/03/24 05:26:37;;;;;;;;;;;154.00;1459.20;;;;;;5107076;28;19908;-79
2022/03/24 05:29:30;;;;;;;;;;;154.10;1459.20;;;;;;5105927;28;19911;-79
2022/03/24 05:31:57;;;;;;;;;;;154.20;1459.20;;;;;;5102765;28;19918;-79
2022/03/24 05:34:26;;;;;;;;;;;154.50;1433.60;;;;;;5099431;28;19904;-80
2022/03/24 05:37:02;;;;;;;;;;;154.50;1433.60;;;;;;5106107;28;19908;-82
2022/03/24 05:39:29;;;;;;;;;;;179.20;1433.60;;;;;;5111003;28;19911;-80
2022/03/24 05:42:02;;;;;;;;;;;179.20;1459.20;;;;;;5113278;28;19892;-80
2022/03/24 05:44:30;;;;;;;;;;;179.30;1459.20;;;;;;5110042;28;19907;-79
2022/03/24 05:46:56;;;;;;;;;;;179.50;2201.60;;;;;;5115258;28;19892;-79
2022/03/24 05:49:22;;;;;;;;;;;;;;;;;;5101639;28;19930;-79
2022/03/24 05:52:02;;;;;;;;;;;;;;;;;;5120577;28;19918;-79
2022/03/24 05:57:33;;;;;;;;;;;;;;;;;;5119505;28;19911;-80
2022/03/24 06:00:01;;;;;;;;;;;204.80;1382.40;;;;;;5105506;28;20002;-78
2022/03/24 06:02:26;;;;;;;;;;;180.10;1331.20;;;;;;5107160;28;19916;-78
2022/03/24 06:04:53;;;;;;;;;;;204.90;1356.80;;;;;;5106993;28;19911;-80
2022/03/24 06:07:18;;;;;;;;;;;205.00;1331.20;;;;;;5102804;28;20360;-78
2022/03/24 06:09:49;;;;;;;;;;;205.00;1331.20;;;;;;5099028;28;19911;-79
2022/03/24 06:12:19;;;;;;;;;;;205.10;1331.20;;;;;;5095417;28;19960;-78
2022/03/24 06:14:45;;;;;;;;;;;205.10;1331.20;;;;;;5115158;28;19998;-79
2022/03/24 06:17:11;;;;;;;;;;;180.00;1331.20;;;;;;5106552;28;19957;-79
2022/03/24 06:19:36;;;;;;;;;;;204.90;1356.80;;;;;;5105661;28;19993;-79
2022/03/24 06:22:03;;;;;;;;;;;205.00;1356.80;;;;;;5105198;28;19911;-79
2022/03/24 06:24:29;;;;;;;;;;;205.00;1356.80;;;;;;5106289;28;19947;-79
2022/03/24 06:26:55;;;;;;;;;;;205.00;1356.80;;;;;;5107916;28;19910;-79
2022/03/24 06:29:22;;;;;;;;;;;205.00;1382.40;;;;;;5107102;28;19904;-79
2022/03/24 06:31:48;;;;;;;;;;;205.10;1382.40;;;;;;5104971;22;19927;-79
2022/03/24 06:34:17;;;;;;;;;;;205.20;1382.40;;;;;;5084920;28;19905;-79
2022/03/24 06:36:43;;;;;;;;;;;205.20;1382.40;;;;;;5095572;28;19942;-79
2022/03/24 06:39:09;;;;;;;;;;;205.40;1382.40;;;;;;5092513;28;19908;-78
2022/03/24 06:41:34;;;;;;;;;;;205.40;1356.80;;;;;;5092294;28;19904;-78
2022/03/24 06:44:00;;;;;;;;;;;205.60;1356.80;;;;;;5083443;28;19904;-78
2022/03/24 06:46:27;;;;;;;;;;;205.60;1356.80;;;;;;5086635;28;19904;-78
2022/03/24 06:48:53;;;;;;;;;;;205.70;1356.80;;;;;;5082850;28;20424;-78
2022/03/24 06:51:19;;;;;;;;;;;230.40;1356.80;;;;;;5083123;28;19912;-78
2022/03/24 06:53:45;;;;;;;;;;;230.50;1305.60;;;;;;5076436;28;20369;-79
2022/03/24 06:56:11;;;;;;;;;;;230.70;1331.20;;;;;;5080458;28;19905;-80
2022/03/24 06:58:37;;;;;;;;;;;;;;;;;;5076828;28;19905;-81
2022/03/24 07:01:05;;;;;;;;;;;230.90;1331.20;;;;;;5075059;28;19911;-80
2022/03/24 07:03:31;;;;;;;;;;;231.10;1305.60;;;;;;5076761;28;19912;-81
2022/03/24 07:05:56;;;;;;;;;;;231.30;1305.60;;;;;;5074943;28;19904;-79
2022/03/24 07:08:26;;;;;;;;;;;;;;;;;;5075408;28;19912;-78
2022/03/24 07:10:52;;;;;;;;;;;256.30;1254.40;;;;;;5075148;28;19969;-78
2022/03/24 07:13:18;;;;;;;;;;;256.50;1280.00;;;;;;5074921;28;20003;-82
2022/03/24 07:15:44;;;;;;;;;;;256.60;1228.80;;;;;;5076216;28;19950;-77
2022/03/24 07:18:10;;;;;;;;;;;256.80;1228.80;;;;;;5075105;28;19904;-82
2022/03/24 07:20:36;;;;;;;;;;;281.60;1280.00;;;;;;5075117;28;19911;-82
2022/03/24 07:23:03;;;;;;;;;;;281.80;1254.40;;;;;;5075103;28;20395;-84
2022/03/24 07:25:32;;;;;;;;;;;282.20;1203.20;;;;;;5075316;28;19905;-84
2022/03/24 07:27:59;;;;;;;;;;;282.30;1203.20;;;;;;5074482;28;19954;-82
2022/03/24 07:30:25;;;;;;;;;;;307.40;1254.40;;;;;;5074358;28;19911;-81
2022/03/24 07:32:52;;;;;;;;;;;307.40;1228.80;;;;;;5076002;28;19908;-78
2022/03/24 07:35:18;;;;;;;;;;;307.60;1177.60;;;;;;5075914;28;20281;-77
2022/03/24 07:37:44;;;;;;;;;;;307.80;1152.00;;;;;;5075918;28;19912;-79
2022/03/24 07:40:10;;;;;;;;;;;308.10;1126.40;;;;;;5074478;28;19942;-80
2022/03/24 07:42:37;;;;;;;;;;;332.80;1100.80;;;;;;5075385;28;19904;-82
2022/03/24 07:45:04;;;;;;;;;;;333.10;1100.80;;;;;;5074423;28;19916;-79
2022/03/24 07:47:30;;;;;;;;;;;333.30;1075.20;;;;;;5075790;28;19908;-83
2022/03/24 07:49:57;;;;;;;;;;;333.50;1075.20;;;;;;5075972;28;19931;-77
2022/03/24 07:52:24;;;;;;;;;;;333.70;1049.60;;;;;;5074704;28;19920;-80
2022/03/24 07:55:00;;;;;;;;;;;358.60;1049.60;;;;;;5075534;28;19904;-79
2022/03/24 07:57:26;;;;;;;;;;;358.90;998.40;;;;;;5074595;28;19905;-85
2022/03/24 07:59:52;;;;;;;;;;;359.20;1024.00;;;;;;5074132;28;19912;-81
2022/03/24 08:02:17;;;;;;;;;;;384.20;972.80;;;;;;5074305;28;19954;-83
2022/03/24 08:04:43;;;;;;;;;;;384.50;972.80;;;;;;5075519;28;19908;-78
2022/03/24 08:07:09;;;;;;;;;;;384.90;921.60;;;;;;5073437;28;19954;-83
2022/03/24 08:09:35;;;;;;;;;;;409.70;921.60;;;;;;5072849;28;20345;-77
2022/03/24 08:12:01;;;;;;;;;;;410.00;896.00;;;;;;5071831;28;19923;-78
2022/03/24 08:14:26;;;;;;;;;;;410.30;1280.00;;;;;;5074533;28;19998;-81
2022/03/24 08:16:52;;;;;;;;;;;461.10;844.80;;;;;;5074960;28;19904;-77
2022/03/24 08:19:18;;;;;;;;;;;512.10;716.80;;;;;;5073817;28;19912;-82
2022/03/24 08:21:44;;;;;;;;;;;538.40;716.80;;;;;;5073803;28;19905;-77
2022/03/24 08:24:10;;;;;;;;;;;589.00;691.20;;;;;;5073712;28;19905;-77
2022/03/24 08:26:36;;;;;;;;;;;614.50;640.00;;;;;;5074993;28;19919;-77
2022/03/24 08:29:02;;;;;;;;;;;640.00;588.80;;;;;;5073544;28;19912;-78
2022/03/24 08:31:28;;;;;;;;;;;665.80;588.80;;;;;;5074665;28;20369;-78
2022/03/24 08:33:54;;;;;;;;;;;666.40;588.80;;;;;;5073695;28;19904;-78
2022/03/24 08:36:19;;;;;;;;;;;666.40;537.60;;;;;;5073630;28;20257;-83
2022/03/24 08:38:45;;;;;;;;;;;692.00;512.00;;;;;;5074537;28;19927;-80
2022/03/24 08:41:14;;;;;;;;;;;742.40;512.00;;;;;;5074306;28;19913;-75
2022/03/24 08:43:40;;;;;;;;;;;743.10;512.00;;;;;;5073426;28;20410;-78
2022/03/24 08:46:08;;;;;;;;;;;742.50;486.40;;;;;;5073028;28;19909;-80
2022/03/24 08:48:37;;;;;;;;;;;716.80;512.00;;;;;;5073312;28;19919;-78
2022/03/24 08:51:03;;;;;;;;;;;717.50;486.40;;;;;;5074621;28;20322;-78
2022/03/24 08:53:29;;;;;;;;;;;743.10;486.40;;;;;;5073160;28;19904;-80
2022/03/24 08:55:56;;;;;;;;;;;743.00;460.80;;;;;;5074320;28;19905;-75
2022/03/24 08:58:21;;;;;;;;;;;768.30;460.80;;;;;;5074456;28;19908;-76
2022/03/24 09:00:47;;;;;;;;;;;768.70;435.20;;;;;;5072194;28;19904;-75
2022/03/24 09:03:13;;;;;;;;;;;819.40;409.60;;;;;;5074273;28;20365;-75
2022/03/24 09:05:39;;;;;;;;;;;844.90;435.20;;;;;;5082035;28;19931;-83
2022/03/24 09:08:06;;;;;;;17.60;8.70;;;845.30;409.60;;;;;;5080126;28;19908;-82
2022/03/24 09:10:32;;;;;;;18.27;9.05;;;819.90;409.60;;;;;;5077670;28;20028;-83
2022/03/24 09:12:58;;;;;;;21.08;11.82;;;819.90;409.60;;;;;;5072575;28;20036;-83
2022/03/24 09:15:24;;;;;;;17.88;9.73;;;845.30;409.60;;;;;;5072452;28;20104;-83
2022/03/24 09:17:50;;;;;;;19.83;9.43;;;871.10;384.00;;;;;;5072505;28;20107;-82
2022/03/24 09:20:18;;;;;;;37.50;9.93;;;896.60;358.40;;;;;;5072093;28;20495;-83
2022/03/24 09:22:45;;;;;;;;;;;896.00;332.80;;;;;;5072656;28;20086;-76
2022/03/24 09:25:12;;;;;;;;;;;921.70;332.80;;;;;;5072577;28;19958;-78
2022/03/24 09:27:39;;;;;;;15.75;9.70;;;947.50;307.20;;;;;;5072250;28;19905;-77
2022/03/24 09:30:07;;;;;;;11.73;7.95;;;947.80;307.20;;;;;;5072228;28;20028;-78
2022/03/24 09:32:34;;;;;;;16.67;10.07;;;973.50;307.20;;;;;;5071969;28;20446;-77
2022/03/24 09:35:01;;;;;;;14.23;7.82;;;998.90;332.80;;;;;;5072141;28;20020;-76
2022/03/24 09:37:28;;;;;;;13.48;8.10;;;972.80;307.20;;;;;;5072154;28;20031;-77
2022/03/24 09:39:55;;;;;;;12.27;7.60;;;973.40;332.80;;;;;;5072123;28;20031;-77
2022/03/24 09:42:23;;;;;;;12.40;7.78;;;998.40;332.80;;;;;;5073367;28;20028;-77
2022/03/24 09:44:51;;;;;;;11.27;7.72;;;973.70;307.20;;;;;;5091136;28;21255;-78
2022/03/24 09:47:18;;;;;;;11.27;7.28;;;972.80;332.80;;;;;;5092317;28;20051;-78
2022/03/24 09:49:44;;;;;;;14.80;7.85;;;973.10;307.20;;;;;;5092147;28;20051;-77
2022/03/24 09:52:11;;;;;;;13.75;7.70;;;973.40;307.20;;;;;;5092186;28;20067;-76
2022/03/24 09:54:39;;;;;;;15.18;7.35;;;1024.20;332.80;;;;;;5092224;28;20020;-78
2022/03/24 09:57:07;;;;;;;16.10;6.90;;;999.10;332.80;;;;;;5093351;28;20028;-77
2022/03/24 09:59:33;;;;;;;21.10;12.38;;;1024.40;332.80;;;;;;5091821;28;20025;-77
2022/03/24 10:02:01;;;;;;;14.32;7.43;;;947.70;307.20;;;;;;5093078;28;20027;-80
2022/03/24 10:04:27;;;;;;;28.23;17.52;;;845.60;384.00;;;;;;5092028;28;20050;-77
2022/03/24 10:07:00;;;;;;;13.48;7.10;;;;;;;;;;5093272;28;20518;-78
2022/03/24 10:09:37;;;;;;;13.73;7.07;;;743.00;409.60;;;;;;5091663;28;20421;-77
2022/03/24 10:12:05;;;;;;;16.65;7.90;;;717.50;435.20;;;;;;5091680;28;20446;-76
2022/03/24 10:14:31;;;;;;;18.35;7.95;;;691.80;435.20;;;;;;5091683;28;20034;-78
2022/03/24 10:17:08;;;;;;;27.63;13.10;;;691.20;460.80;;;;;;5092064;28;20423;-75
2022/03/24 10:19:36;;;;;;;24.27;12.93;;;666.00;486.40;;;;;;5093295;28;20464;-77
2022/03/24 10:22:09;;;;;;;114.03;14.38;;;640.70;460.80;;;;;;5093156;28;20463;-77
2022/03/24 10:24:41;;;;;;;;;;;615.00;537.60;;;;;;5093208;28;20016;-77
2022/03/24 10:27:08;;;;;;;12.97;8.20;;;614.70;512.00;;;;;;5093255;28;19911;-78
2022/03/24 10:29:35;;;;;;;14.13;7.15;;;614.70;512.00;;;;;;5091273;28;20032;-77
2022/03/24 10:32:03;;;;;;;12.43;6.95;;;614.80;512.00;;;;;;5092479;28;20040;-77
2022/03/24 10:34:35;;;;;;;18.50;7.85;;;614.50;537.60;;;;;;5093004;28;20027;-78
2022/03/24 10:37:05;;;;;;;13.70;7.25;;;589.60;537.60;;;;;;5094179;28;20028;-77
2022/03/24 10:39:33;;;;;;;13.57;7.85;;;614.40;537.60;;;;;;5095131;28;20016;-79
2022/03/24 10:42:17;;;;;;;14.32;6.82;;;589.60;563.20;;;;;;5095038;28;20024;-78
2022/03/24 10:45:18;;;;;;;32.10;11.38;;;589.60;563.20;;;;;;5093508;28;20523;-80
2022/03/24 10:47:56;;;;;;;15.27;10.32;;;589.60;512.00;;;;;;5093848;28;20020;-79
2022/03/24 10:50:42;;;;;;;12.93;8.38;;;589.60;563.20;;;;;;5094252;28;20023;-76
2022/03/24 10:53:12;;;;;;;34.88;13.32;;;589.60;537.60;;;;;;5094856;28;20024;-82
2022/03/24 10:55:44;;;;;;;19.73;13.55;;;589.30;537.60;;;;;;5094782;28;20020;-78
2022/03/24 10:58:33;;;;;;;87.60;70.38;;;589.10;563.20;;;;;;5093438;28;20380;-77
2022/03/24 11:01:03;;;;;;;18.50;8.82;;;589.30;563.20;;;;;;5092705;28;25135;-77
2022/03/24 11:03:29;;;;;;;18.08;8.13;;;614.40;537.60;;;;;;5093228;28;20424;-80
2022/03/24 11:06:24;;;;;;;14.18;8.00;;;614.40;537.60;;;;;;5094598;28;20356;-78
2022/03/24 11:09:01;;;;;;;14.55;8.43;;;589.50;537.60;;;;;;5071980;28;20381;-77
2022/03/24 11:11:28;;;;;;;12.63;8.10;;;589.70;588.80;;;;;;5093613;28;20487;-78
2022/03/24 11:14:03;;;;;;;17.50;8.20;;;589.70;537.60;;;;;;5093559;28;20380;-78
2022/03/24 11:16:32;;;;;;;18.02;8.38;;;614.40;537.60;;;;;;5093442;28;20376;-80
2022/03/24 11:19:01;;;;;;;10.77;7.90;;;614.50;537.60;;;;;;5093548;28;20368;-81
2022/03/24 11:21:58;;;;;;;17.08;9.35;;;614.40;563.20;;;;;;5093230;28;20373;-78
2022/03/24 11:24:25;;;;;;;19.85;13.05;;;614.40;537.60;;;;;;5094410;28;20399;-79
2022/03/24 11:26:51;;;;;;;25.13;16.37;;;614.70;537.60;;;;;;5092900;28;20516;-79
2022/03/24 11:29:18;;;;;;;17.00;8.77;;;614.40;537.60;;;;;;5093020;28;20368;-79
2022/03/24 11:31:45;;;;;;;18.67;11.63;;;614.40;512.00;;;;;;5094145;28;20416;-83
2022/03/24 11:34:11;;;;;;;18.15;9.40;;;589.70;512.00;;;;;;5093020;28;20372;-81
2022/03/24 11:36:37;;;;;;;20.83;14.52;;;614.60;537.60;;;;;;5095137;28;20455;-85
2022/03/24 11:39:08;;;;;;;21.50;11.77;;;614.50;512.00;;;;;;5093730;28;20456;-82
2022/03/24 11:41:50;;;;;;;40.63;10.25;;;614.40;512.00;;;;;;5094828;28;20426;-84
2022/03/24 11:44:39;;;;;;;12.85;7.20;;;614.70;537.60;;;;;;5094031;28;20463;-84
2022/03/24 11:47:15;;;;;;;11.52;6.53;;;614.60;512.00;;;;;;5095020;28;20970;-83
2022/03/24 11:49:41;;;;;;;11.25;6.85;;;614.50;512.00;;;;;;5093441;28;20392;-82
2022/03/24 11:52:07;;;;;;;15.02;7.50;;;589.60;537.60;;;;;;5092752;28;20396;-84
2022/03/24 11:54:39;;;;;;;15.33;7.33;;;589.60;537.60;;;;;;5093034;28;20381;-83
2022/03/24 11:57:31;;;;;;;19.98;7.72;;;614.40;512.00;;;;;;5092059;28;20471;-83
2022/03/24 12:00:12;;;;;;;19.63;12.68;;;614.60;537.60;;;;;;5092772;28;20369;-84
2022/03/24 12:02:39;;;;;;;21.17;12.10;;;614.80;537.60;;;;;;5092760;28;20437;-81
2022/03/24 12:05:06;;;;;;;14.88;9.98;;;615.00;512.00;;;;;;5092886;28;20381;-83
2022/03/24 12:07:32;;;;;;;13.25;6.80;;;614.90;512.00;;;;;;5092208;28;20380;-86
2022/03/24 12:10:13;;;;;;;67.87;9.90;;;615.00;486.40;;;;;;5095505;28;20470;-85
2022/03/24 12:13:01;;;;;;;27.80;7.45;;;615.10;486.40;;;;;;5093191;28;20935;-78
2022/03/24 12:15:27;;;;;;;26.92;13.68;;;615.00;486.40;;;;;;5092303;28;20468;-83
2022/03/24 12:18:05;;;;;;;23.48;19.73;;;614.90;486.40;;;;;;5091902;28;20388;-85
2022/03/24 12:20:47;;;;;;;14.93;7.53;;;615.00;512.00;;;;;;5092358;28;20427;-86
2022/03/24 12:23:15;;;;;;;12.00;8.20;;;615.20;486.40;;;;;;5091920;28;20384;-78
2022/03/24 12:25:41;;;;;;;11.48;6.80;;;615.20;486.40;;;;;;5090235;28;20448;-77
2022/03/24 12:28:10;;;;;;;12.10;6.50;;;615.20;486.40;;;;;;5091903;28;20467;-78
2022/03/24 12:30:44;;;;;;;11.73;6.43;;;615.30;486.40;;;;;;5091245;28;20589;-78
2022/03/24 12:33:12;;;;;;;11.95;7.50;;;615.30;486.40;;;;;;5090431;28;20121;-78
2022/03/24 12:35:55;;;;;;;19.73;6.65;;;615.20;512.00;;;;;;5092607;28;20457;-78
2022/03/24 12:38:30;;;;;;;11.32;7.03;;;614.90;486.40;;;;;;5092779;28;20016;-78
2022/03/24 12:41:06;;;;;;;10.88;6.30;;;614.90;512.00;;;;;;5095566;28;20043;-81
2022/03/24 12:43:46;;;;;;;10.70;5.93;;;614.80;512.00;;;;;;5088817;28;20089;-85
2022/03/24 12:46:29;;;;;;;11.30;6.25;;;614.80;486.40;;;;;;5085528;28;20532;-82
2022/03/24 12:48:55;;;;;;;;;;;614.90;512.00;;;;;;5093526;28;20020;-80
2022/03/24 12:51:25;;;;;;;;;;;614.90;486.40;;;;;;5093331;28;19912;-78
2022/03/24 12:53:51;;;;;;;;;;;615.10;486.40;;;;;;5092512;28;19908;-78
2022/03/24 12:56:43;;;;;;;;;;;615.20;486.40;;;;;;5093345;28;19994;-78
2022/03/24 12:59:09;;;;;;;;;;;640.00;486.40;;;;;;5086090;28;19904;-77
2022/03/24 13:01:36;;;;;;;11.52;6.38;;;640.20;486.40;;;;;;5071407;28;20272;-80
2022/03/24 13:04:05;;;;;;;18.95;8.68;;;640.30;486.40;;;;;;5071850;28;20375;-78
2022/03/24 13:06:34;;;;;;;14.00;7.18;;;665.90;486.40;;;;;;5070176;28;20829;-78
2022/03/24 13:09:18;;;;;;;9.18;7.00;;;768.80;384.00;;;;;;5070432;28;20412;-81
2022/03/24 13:11:52;;;;;;;13.30;7.35;;;896.50;307.20;;;;;;5071251;28;20829;-76
2022/03/24 13:14:19;;;;;;;11.40;7.00;;;1024.60;332.80;;;;;;5070339;28;20870;-77
2022/03/24 13:17:01;;;;;;;11.65;7.07;;;1126.50;409.60;;;;;;5070257;28;20716;-78
2022/03/24 13:19:28;;;;;;;21.50;7.30;;;1178.10;409.60;;;;;;5070123;28;20374;-76
2022/03/24 13:21:55;;;;;;;12.75;7.07;;;1203.50;435.20;;;;;;5071437;28;20381;-76
2022/03/24 13:24:22;;;;;;;11.85;7.15;;;1228.90;460.80;;;;;;5071404;28;20890;-75
2022/03/24 13:27:02;;;;;;;9.85;6.55;;;1229.00;460.80;;;;;;5071235;28;20386;-81
2022/03/24 13:29:37;;;;;;;11.45;6.40;;;1229.50;460.80;;;;;;5079609;28;20375;-77
2022/03/24 13:32:18;;;;;;;7.35;5.93;;;1177.90;409.60;;;;;;5090464;28;20431;-76
2022/03/24 13:34:52;;;;;;;11.27;6.47;;;1177.90;409.60;;;;;;5091079;28;20367;-78
2022/03/24 13:37:23;;;;;;;17.95;7.57;;;1204.00;435.20;;;;;;5091765;28;20454;-84
2022/03/24 13:39:55;;;;;;;17.50;7.00;;;1228.80;460.80;;;;;;5092633;28;20439;-85
2022/03/24 13:42:23;;;;;;;10.15;6.43;;;1254.40;486.40;;;;;;5091015;28;20388;-77
2022/03/24 13:44:51;;;;;;;16.92;10.68;;;1229.60;460.80;;;;;;5091298;28;20365;-79